Portada
METAR-TAF:

METAR-TAF

Aeroports :

Harbor Springs Municipal Airport

Harbor Springs, Michigan, Estats Units d'Amèrica

latitud: 45-25-32N, longitud: 084-54-48W, altitud: 209 m

Observació

L'informe es va fer fa 28 minuts, a les 02:15 UTC
Vent 3 kt del Est/Nord-Est
Temperatura 22°C
Humitat 100%
Pressió 1014 hPa
Visibilitat: 16.1 km
Cel cobert a una alçada de 9000 ft

METAR: KMGN 280215Z AUTO 06003KT 10SM OVC090 22/22 A2993 RMK AO2 T02240222

Hora: 22:43 (02:43 UTC)


TAF: manca

Observacions i pronòstics meteorològics de més de 4000 aeroports (METAR i TAF).

Les estacions disponibles són els punts grocs i vermells al mapa.

Posi el ratolí al punt desitjat per veure el nom de l'estació.

Feu clic per veure les observacions i els pronòstics meteorològics.

Per canviar el mapa: feu clic els botons verds amb una creu de color negre per apropar; al botó verd amb un guió per allunyar la imatge; o en les fletxes verdes per a mapes adjacents.


METAR-TAF: